createdAt,value
2018-11-05T00:00:46.139Z,9.80
2018-11-05T00:03:15.015Z,9.63
2018-11-05T00:05:43.548Z,10.05
2018-11-05T00:08:12.082Z,8.90
2018-11-05T00:10:40.635Z,8.10
2018-11-05T00:13:09.127Z,8.30
2018-11-05T00:15:37.695Z,8.88
2018-11-05T00:18:06.364Z,8.10
2018-11-05T00:20:34.916Z,8.40
2018-11-05T00:23:03.443Z,8.40
2018-11-05T00:25:31.965Z,8.05
2018-11-05T00:28:00.456Z,7.80
2018-11-05T00:30:28.944Z,8.20
2018-11-05T00:32:57.457Z,8.65
2018-11-05T00:35:26.001Z,9.70
2018-11-05T00:37:54.509Z,8.38
2018-11-05T00:40:23.047Z,9.05
2018-11-05T00:42:51.552Z,9.48
2018-11-05T00:45:20.034Z,7.80
2018-11-05T00:47:48.568Z,7.37
2018-11-05T00:50:17.191Z,7.20
2018-11-05T00:52:45.733Z,8.20
2018-11-05T00:55:14.536Z,8.70
2018-11-05T00:57:43.098Z,7.50
2018-11-05T01:00:13.448Z,7.55
2018-11-05T01:02:42.498Z,7.30
2018-11-05T01:05:12.452Z,8.70
2018-11-05T01:07:41.640Z,7.83
2018-11-05T01:10:17.088Z,8.18
2018-11-05T01:12:45.654Z,8.05
2018-11-05T01:15:15.403Z,8.50
2018-11-05T01:17:43.986Z,7.83
2018-11-05T01:20:13.580Z,8.25
2018-11-05T01:22:42.111Z,8.05
2018-11-05T01:25:10.798Z,7.40
2018-11-05T01:27:39.395Z,7.17
2018-11-05T01:30:12.883Z,7.03
2018-11-05T01:32:41.503Z,9.55
2018-11-05T01:35:11.615Z,7.78
2018-11-05T01:37:40.224Z,7.80
2018-11-05T01:40:10.943Z,7.80
2018-11-05T01:42:39.571Z,6.75
2018-11-05T01:45:09.729Z,7.33
2018-11-05T01:47:38.280Z,6.20
2018-11-05T01:50:08.161Z,6.78
2018-11-05T01:52:36.712Z,6.40
2018-11-05T01:55:06.305Z,6.40
2018-11-05T01:57:34.828Z,5.75
2018-11-05T02:00:03.749Z,7.15
2018-11-05T02:02:32.284Z,6.80
2018-11-05T02:05:00.772Z,6.33
2018-11-05T02:07:29.377Z,7.20
2018-11-05T02:09:57.893Z,6.50
2018-11-05T02:12:26.407Z,6.05
2018-11-05T02:14:54.958Z,7.20
2018-11-05T02:17:23.523Z,6.62
2018-11-05T02:19:52.035Z,6.05
2018-11-05T02:22:20.546Z,6.50
2018-11-05T02:24:49.104Z,6.97
2018-11-05T02:27:17.685Z,7.25
2018-11-05T02:29:46.228Z,6.35
2018-11-05T02:32:14.761Z,5.95
2018-11-05T02:34:43.243Z,6.17
2018-11-05T02:37:11.817Z,6.03
2018-11-05T02:39:40.350Z,6.70
2018-11-05T02:42:15.432Z,6.20
2018-11-05T02:44:44.064Z,6.22
2018-11-05T02:47:12.607Z,5.10
2018-11-05T02:49:41.127Z,4.92
2018-11-05T02:52:09.698Z,5.97
2018-11-05T02:54:38.201Z,5.70
2018-11-05T02:57:06.715Z,5.75
2018-11-05T02:59:35.205Z,5.65
2018-11-05T03:02:03.797Z,6.90
2018-11-05T03:04:32.306Z,6.50
2018-11-05T03:07:00.811Z,6.30
2018-11-05T03:09:29.326Z,5.90
2018-11-05T03:11:57.875Z,5.12
2018-11-05T03:14:26.372Z,5.97
2018-11-05T03:16:54.870Z,7.10
2018-11-05T03:19:23.393Z,7.10
2018-11-05T03:21:51.920Z,7.37
2018-11-05T03:24:20.431Z,8.10
2018-11-05T03:26:48.948Z,6.72
2018-11-05T03:29:17.513Z,6.42
2018-11-05T03:31:46.020Z,6.45
2018-11-05T03:34:14.590Z,7.97
2018-11-05T03:36:43.191Z,7.30
2018-11-05T03:39:12.525Z,7.47
2018-11-05T03:41:41.095Z,9.05
2018-11-05T03:44:10.292Z,7.60
2018-11-05T03:46:38.841Z,8.28
2018-11-05T03:49:08.698Z,7.12
2018-11-05T03:51:37.199Z,6.00
2018-11-05T03:54:06.773Z,4.75
2018-11-05T03:56:35.418Z,4.28
2018-11-05T03:59:03.940Z,4.75
2018-11-05T04:01:32.513Z,3.62
2018-11-05T04:04:01.141Z,4.17
2018-11-05T04:06:29.718Z,3.95
2018-11-05T04:08:58.246Z,3.60
2018-11-05T04:11:26.771Z,3.47
2018-11-05T04:13:55.335Z,4.00
2018-11-05T04:16:23.881Z,3.35
2018-11-05T04:18:52.451Z,3.10
2018-11-05T04:21:21.034Z,2.93
2018-11-05T04:23:49.579Z,4.23
2018-11-05T04:26:18.162Z,3.50
2018-11-05T04:28:46.681Z,2.87
2018-11-05T04:31:15.208Z,3.47
2018-11-05T04:33:43.739Z,3.60
2018-11-05T04:36:12.275Z,2.80
2018-11-05T04:38:40.785Z,2.73
2018-11-05T04:41:09.369Z,2.90
2018-11-05T04:43:37.903Z,3.23
2018-11-05T04:46:06.535Z,4.50
2018-11-05T04:48:35.090Z,3.03
2018-11-05T04:51:03.673Z,2.50
2018-11-05T04:53:32.248Z,2.60
2018-11-05T04:56:00.833Z,3.60
2018-11-05T04:58:29.377Z,3.33
2018-11-05T05:00:57.946Z,3.10
2018-11-05T05:03:26.592Z,2.70
2018-11-05T05:05:55.104Z,2.97
2018-11-05T05:08:23.648Z,2.93
2018-11-05T05:10:52.212Z,3.03
2018-11-05T05:13:20.761Z,3.63
2018-11-05T05:15:49.309Z,2.90
2018-11-05T05:18:17.859Z,2.10
2018-11-05T05:20:46.431Z,2.30
2018-11-05T05:23:15.008Z,2.60
2018-11-05T05:25:43.564Z,2.30
2018-11-05T05:28:12.078Z,2.52
2018-11-05T05:30:40.633Z,2.70
2018-11-05T05:33:09.298Z,2.75
2018-11-05T05:35:37.720Z,2.47
2018-11-05T05:38:06.337Z,3.65
2018-11-05T05:40:34.894Z,3.58
2018-11-05T05:43:03.473Z,2.77
2018-11-05T05:45:32.189Z,3.60
2018-11-05T05:48:00.715Z,3.17
2018-11-05T05:50:29.228Z,2.92
2018-11-05T05:52:57.770Z,3.55
2018-11-05T05:55:26.285Z,5.10
2018-11-05T05:57:54.804Z,4.40
2018-11-05T06:00:23.328Z,4.50
2018-11-05T06:02:51.877Z,3.98
2018-11-05T06:05:20.423Z,3.87
2018-11-05T06:07:48.956Z,4.35
2018-11-05T06:10:17.493Z,4.62
2018-11-05T06:12:46.104Z,5.20
2018-11-05T06:15:15.884Z,5.27
2018-11-05T06:17:44.426Z,5.80
2018-11-05T06:20:15.979Z,6.30
2018-11-05T06:22:45.203Z,4.60
2018-11-05T06:25:13.771Z,4.80
2018-11-05T06:27:42.286Z,3.70
2018-11-05T06:30:14.611Z,3.40
2018-11-05T06:32:43.737Z,2.90
2018-11-05T06:35:12.661Z,3.50
2018-11-05T06:37:41.743Z,2.93
2018-11-05T06:40:12.511Z,2.30
2018-11-05T06:42:41.556Z,2.70
2018-11-05T06:45:12.734Z,2.53
2018-11-05T06:47:42.541Z,2.77
2018-11-05T06:50:13.192Z,3.00
2018-11-05T06:52:42.433Z,2.10
2018-11-05T06:55:11.681Z,2.83
2018-11-05T06:57:40.834Z,2.90
2018-11-05T07:00:13.803Z,3.30
2018-11-05T07:02:42.733Z,3.00
2018-11-05T07:05:11.423Z,3.90
2018-11-05T07:07:39.956Z,3.73
2018-11-05T07:10:10.237Z,3.33
2018-11-05T07:12:39.237Z,2.90
2018-11-05T07:15:09.262Z,3.83
2018-11-05T07:17:37.782Z,3.20
2018-11-05T07:20:08.517Z,3.40
2018-11-05T07:22:37.053Z,3.23
2018-11-05T07:25:06.967Z,2.60
2018-11-05T07:27:35.607Z,3.30
2018-11-05T07:30:04.764Z,3.90
2018-11-05T07:32:33.293Z,3.43
2018-11-05T07:35:01.829Z,4.13
2018-11-05T07:37:30.380Z,3.60
2018-11-05T07:39:58.960Z,4.27
2018-11-05T07:42:27.498Z,3.77
2018-11-05T07:44:56.025Z,3.93
2018-11-05T07:47:24.509Z,3.37
2018-11-05T07:49:53.019Z,4.70
2018-11-05T07:52:21.558Z,4.00
2018-11-05T07:54:50.114Z,3.70
2018-11-05T07:57:18.670Z,4.07
2018-11-05T07:59:47.199Z,4.03
2018-11-05T08:02:15.751Z,4.20
2018-11-05T08:04:44.296Z,4.73
2018-11-05T08:07:12.859Z,5.47
2018-11-05T08:09:41.351Z,5.63
2018-11-05T08:12:09.868Z,5.27
2018-11-05T08:14:38.651Z,3.90
2018-11-05T08:17:07.367Z,3.60
2018-11-05T08:19:35.933Z,3.50
2018-11-05T08:22:04.522Z,2.90
2018-11-05T08:24:33.053Z,4.30
2018-11-05T08:27:01.627Z,3.20
2018-11-05T08:29:30.146Z,3.70
2018-11-05T08:31:58.702Z,3.80
2018-11-05T08:34:27.356Z,3.00
2018-11-05T08:36:56.139Z,2.80
2018-11-05T08:39:24.692Z,3.20
2018-11-05T08:41:53.228Z,3.77
2018-11-05T08:44:21.752Z,3.00
2018-11-05T08:46:50.278Z,3.00
2018-11-05T08:49:18.792Z,2.97
2018-11-05T08:51:47.715Z,2.63
2018-11-05T08:54:15.949Z,2.90
2018-11-05T08:56:44.437Z,2.63
2018-11-05T08:59:12.952Z,2.57
2018-11-05T09:01:42.307Z,2.30
2018-11-05T09:04:10.805Z,2.17
2018-11-05T09:06:39.331Z,2.77
2018-11-05T09:09:08.516Z,2.53
2018-11-05T09:11:37.876Z,2.30
2018-11-05T09:14:06.155Z,2.73
2018-11-05T09:16:34.648Z,2.93
2018-11-05T09:19:03.208Z,2.40
2018-11-05T09:21:31.807Z,2.47
2018-11-05T09:24:00.321Z,2.17
2018-11-05T09:26:28.860Z,2.20
2018-11-05T09:28:57.400Z,2.17
2018-11-05T09:31:25.908Z,1.73
2018-11-05T09:33:54.463Z,1.30
2018-11-05T09:36:23.038Z,1.97
2018-11-05T09:38:51.568Z,2.00
2018-11-05T09:41:20.132Z,2.13
2018-11-05T09:43:48.683Z,2.37
2018-11-05T09:46:17.205Z,1.53
2018-11-05T09:48:45.736Z,2.10
2018-11-05T09:51:14.317Z,2.20
2018-11-05T09:53:42.827Z,2.10
2018-11-05T09:56:11.384Z,1.60
2018-11-05T09:58:39.921Z,1.83
2018-11-05T10:01:08.473Z,1.87
2018-11-05T10:03:42.436Z,2.67
2018-11-05T10:06:10.863Z,1.80
2018-11-05T10:08:39.379Z,2.07
2018-11-05T10:11:07.928Z,2.17
2018-11-05T10:13:36.480Z,1.50
2018-11-05T10:16:05.584Z,2.30
2018-11-05T10:18:34.095Z,2.20
2018-11-05T10:21:02.652Z,1.60
2018-11-05T10:23:31.224Z,2.20
2018-11-05T10:25:59.791Z,1.73
2018-11-05T10:28:28.340Z,1.73
2018-11-05T10:30:56.956Z,2.13
2018-11-05T10:33:25.533Z,3.50
2018-11-05T10:35:54.022Z,2.40
2018-11-05T10:38:22.732Z,1.87
2018-11-05T10:40:51.978Z,2.13
2018-11-05T10:43:20.521Z,1.80
2018-11-05T10:45:49.347Z,1.90
2018-11-05T10:48:17.852Z,2.10
2018-11-05T10:50:46.447Z,2.40
2018-11-05T10:53:14.925Z,1.70
2018-11-05T10:55:43.456Z,1.80
2018-11-05T10:58:12.097Z,1.40
2018-11-05T11:00:45.750Z,1.97
2018-11-05T11:03:15.911Z,1.03
2018-11-05T11:05:44.541Z,1.20
2018-11-05T11:08:13.061Z,1.57
2018-11-05T11:10:41.603Z,1.30
2018-11-05T11:13:10.129Z,1.50
2018-11-05T11:15:38.668Z,1.73
2018-11-05T11:18:07.232Z,1.30
2018-11-05T11:20:35.760Z,1.37
2018-11-05T11:23:04.332Z,1.33
2018-11-05T11:25:32.915Z,1.20
2018-11-05T11:28:01.520Z,1.10
2018-11-05T11:30:30.041Z,1.00
2018-11-05T11:32:58.549Z,1.27
2018-11-05T11:35:27.097Z,1.03
2018-11-05T11:37:55.593Z,1.00
2018-11-05T11:40:24.469Z,1.10
2018-11-05T11:42:53.083Z,1.10
2018-11-05T11:45:22.430Z,1.70
2018-11-05T11:47:50.979Z,1.33
2018-11-05T11:50:19.815Z,1.37
2018-11-05T11:52:48.885Z,1.70
2018-11-05T11:55:19.606Z,1.10
2018-11-05T11:57:48.222Z,1.40
2018-11-05T12:00:19.816Z,1.40
2018-11-05T12:02:49.016Z,1.17
2018-11-05T12:05:17.703Z,1.00
2018-11-05T12:07:46.199Z,1.00
2018-11-05T12:10:17.176Z,1.00
2018-11-05T12:12:45.920Z,0.93
2018-11-05T12:15:15.479Z,0.83
2018-11-05T12:17:44.932Z,1.03
2018-11-05T12:20:14.641Z,0.90
2018-11-05T12:22:43.823Z,0.80
2018-11-05T12:25:12.416Z,0.73
2018-11-05T12:27:40.953Z,1.10
2018-11-05T12:30:17.663Z,0.83
2018-11-05T12:32:46.998Z,1.27
2018-11-05T12:35:15.581Z,0.70
2018-11-05T12:37:45.260Z,1.00
2018-11-05T12:40:15.250Z,1.30
2018-11-05T12:42:44.931Z,1.00
2018-11-05T12:45:13.533Z,0.63
2018-11-05T12:47:42.047Z,0.80
2018-11-05T12:50:14.436Z,1.00
2018-11-05T12:52:43.936Z,0.87
2018-11-05T12:55:12.505Z,1.03
2018-11-05T12:57:41.058Z,0.70
2018-11-05T13:00:15.028Z,0.73
2018-11-05T13:02:43.648Z,1.10
2018-11-05T13:05:13.194Z,0.80
2018-11-05T13:07:41.919Z,0.70
2018-11-05T13:10:12.209Z,0.77
2018-11-05T13:12:40.984Z,0.70
2018-11-05T13:15:10.468Z,0.60
2018-11-05T13:17:39.695Z,0.60
2018-11-05T13:20:14.384Z,0.67
2018-11-05T13:22:43.231Z,0.50
2018-11-05T13:25:12.008Z,0.80
2018-11-05T13:27:41.531Z,0.80
2018-11-05T13:30:10.727Z,0.80
2018-11-05T13:32:39.809Z,0.80
2018-11-05T13:35:10.225Z,0.60
2018-11-05T13:37:39.101Z,0.70
2018-11-05T13:40:14.221Z,0.80
2018-11-05T13:42:42.799Z,0.70
2018-11-05T13:45:12.493Z,0.60
2018-11-05T13:47:41.525Z,0.80
2018-11-05T13:50:10.909Z,0.70
2018-11-05T13:52:39.595Z,0.90
2018-11-05T13:55:09.975Z,0.67
2018-11-05T13:57:38.560Z,0.80
2018-11-05T14:00:09.062Z,0.50
2018-11-05T14:02:37.620Z,0.90
2018-11-05T14:05:06.284Z,0.80
2018-11-05T14:07:34.800Z,0.70
2018-11-05T14:10:03.359Z,0.70
2018-11-05T14:12:31.948Z,0.60
2018-11-05T14:15:00.446Z,0.80
2018-11-05T14:17:28.952Z,0.70
2018-11-05T14:19:57.524Z,0.70
2018-11-05T14:22:25.988Z,0.67
2018-11-05T14:24:54.542Z,0.80
2018-11-05T14:27:23.097Z,0.63
2018-11-05T14:29:51.958Z,0.70
2018-11-05T14:32:20.134Z,0.93
2018-11-05T14:34:48.748Z,0.67
2018-11-05T14:37:17.360Z,0.70
2018-11-05T14:39:45.881Z,0.93
2018-11-05T14:42:14.399Z,0.60
2018-11-05T14:44:42.984Z,0.80
2018-11-05T14:47:11.546Z,0.97
2018-11-05T14:49:40.179Z,0.70
2018-11-05T14:52:08.726Z,0.80
2018-11-05T14:54:37.432Z,0.70
2018-11-05T14:57:06.406Z,1.00
2018-11-05T14:59:35.115Z,0.60
2018-11-05T15:02:08.952Z,0.70
2018-11-05T15:04:37.648Z,0.70
2018-11-05T15:07:06.462Z,0.70
2018-11-05T15:09:35.027Z,0.80
2018-11-05T15:12:03.640Z,1.00
2018-11-05T15:14:32.183Z,0.70
2018-11-05T15:17:00.748Z,0.80
2018-11-05T15:19:29.814Z,1.73
2018-11-05T15:21:58.211Z,0.87
2018-11-05T15:24:26.800Z,0.60
2018-11-05T15:26:55.449Z,0.70
2018-11-05T15:29:23.884Z,0.90
2018-11-05T15:31:52.436Z,0.70
2018-11-05T15:34:24.039Z,0.80
2018-11-05T15:36:52.599Z,0.90
2018-11-05T15:39:21.133Z,0.70
2018-11-05T15:41:49.716Z,1.20
2018-11-05T15:44:18.249Z,1.53
2018-11-05T15:46:46.776Z,1.07
2018-11-05T15:49:15.339Z,1.03
2018-11-05T15:51:44.311Z,1.10
2018-11-05T15:54:12.539Z,0.80
2018-11-05T15:56:40.956Z,1.53
2018-11-05T15:59:09.531Z,1.37
2018-11-05T16:01:38.084Z,0.93
2018-11-05T16:04:07.012Z,1.47
2018-11-05T16:06:35.591Z,0.83
2018-11-05T16:09:04.565Z,1.00
2018-11-05T16:11:33.148Z,1.37
2018-11-05T16:14:01.660Z,0.90
2018-11-05T16:16:30.243Z,1.17
2018-11-05T16:18:59.205Z,1.40
2018-11-05T16:21:27.755Z,1.20
2018-11-05T16:23:57.643Z,1.70
2018-11-05T16:29:02.904Z,1.47
2018-11-05T16:31:31.441Z,1.27
2018-11-05T16:34:00.068Z,1.23
2018-11-05T16:36:28.644Z,1.07
2018-11-05T16:38:57.139Z,1.10
2018-11-05T16:41:25.724Z,1.20
2018-11-05T16:43:54.257Z,1.60
2018-11-05T16:46:22.833Z,1.13
2018-11-05T16:48:51.373Z,1.13
2018-11-05T16:51:19.934Z,1.10
2018-11-05T16:53:48.531Z,1.20
2018-11-05T16:56:17.009Z,1.40
2018-11-05T16:58:45.525Z,1.13
2018-11-05T17:01:14.383Z,1.27
2018-11-05T17:03:42.587Z,1.20
2018-11-05T17:06:11.165Z,1.13
2018-11-05T17:08:39.640Z,1.63
2018-11-05T17:11:08.626Z,1.43
2018-11-05T17:13:37.445Z,1.17
2018-11-05T17:16:06.367Z,1.80
2018-11-05T17:18:35.407Z,1.97
2018-11-05T17:21:03.964Z,1.30
2018-11-05T17:23:32.497Z,1.30
2018-11-05T17:26:01.178Z,1.60
2018-11-05T17:28:29.747Z,2.07
2018-11-05T17:30:58.391Z,6.60
2018-11-05T17:33:26.946Z,3.07
2018-11-05T17:35:57.915Z,9.37
2018-11-05T17:38:26.440Z,9.13
2018-11-05T17:40:55.263Z,6.03
2018-11-05T17:43:23.903Z,2.60
2018-11-05T17:45:52.743Z,2.40
2018-11-05T17:48:21.297Z,2.20
2018-11-05T17:50:49.952Z,2.00
2018-11-05T17:53:18.411Z,2.20
2018-11-05T17:55:46.990Z,1.70
2018-11-05T17:58:15.535Z,2.00
2018-11-05T18:00:44.198Z,2.03
2018-11-05T18:03:12.783Z,1.90
2018-11-05T18:05:41.355Z,1.30
2018-11-05T18:08:09.897Z,1.30
2018-11-05T18:10:38.548Z,2.00
2018-11-05T18:13:07.068Z,2.40
2018-11-05T18:15:35.676Z,2.80
2018-11-05T18:18:04.311Z,2.03
2018-11-05T18:20:32.843Z,2.27
2018-11-05T18:23:01.411Z,1.60
2018-11-05T18:25:32.824Z,1.50
2018-11-05T18:28:01.390Z,1.50
2018-11-05T18:30:29.958Z,1.40
2018-11-05T18:32:58.480Z,1.77
2018-11-05T18:35:27.044Z,1.67
2018-11-05T18:37:55.604Z,1.87
2018-11-05T18:40:24.067Z,1.90
2018-11-05T18:42:52.658Z,2.00
2018-11-05T18:45:21.182Z,2.27
2018-11-05T18:47:49.769Z,2.37
2018-11-05T18:50:18.411Z,2.43
2018-11-05T18:52:46.896Z,2.53
2018-11-05T18:55:16.617Z,3.00
2018-11-05T18:57:45.190Z,2.87
2018-11-05T19:00:20.432Z,2.90
2018-11-05T19:02:49.676Z,3.07
2018-11-05T19:05:18.732Z,2.03
2018-11-05T19:07:47.551Z,1.90
2018-11-05T19:10:16.131Z,2.50
2018-11-05T19:12:44.684Z,2.20
2018-11-05T19:15:14.487Z,2.17
2018-11-05T19:17:43.879Z,1.80
2018-11-05T19:20:12.513Z,1.83
2018-11-05T19:22:41.882Z,1.77
2018-11-05T19:25:11.849Z,2.03
2018-11-05T19:27:40.976Z,1.83
2018-11-05T19:30:13.171Z,1.70
2018-11-05T19:32:41.763Z,2.60
2018-11-05T19:35:11.197Z,2.40
2018-11-05T19:37:40.122Z,1.37
2018-11-05T19:40:10.531Z,1.93
2018-11-05T19:42:39.751Z,2.07
2018-11-05T19:45:10.840Z,2.30
2018-11-05T19:47:39.629Z,2.33
2018-11-05T19:50:10.781Z,2.17
2018-11-05T19:52:39.859Z,2.27
2018-11-05T19:55:09.589Z,2.20
2018-11-05T19:57:38.988Z,3.00
2018-11-05T20:00:16.699Z,2.43
2018-11-05T20:02:46.117Z,2.07
2018-11-05T20:05:15.324Z,1.90
2018-11-05T20:07:44.184Z,1.30
2018-11-05T20:10:13.189Z,1.77
2018-11-05T20:12:42.506Z,1.63
2018-11-05T20:15:11.252Z,1.90
2018-11-05T20:17:40.767Z,1.80
2018-11-05T20:20:11.111Z,1.90
2018-11-05T20:22:39.937Z,2.10
2018-11-05T20:25:08.912Z,1.40
2018-11-05T20:27:38.588Z,1.63
2018-11-05T20:30:09.511Z,1.43
2018-11-05T20:32:38.461Z,1.30
2018-11-05T20:35:07.603Z,1.63
2018-11-05T20:37:36.175Z,1.80
2018-11-05T20:40:05.565Z,1.30
2018-11-05T20:42:34.044Z,1.77
2018-11-05T20:45:02.697Z,1.80
2018-11-05T20:47:31.247Z,1.30
2018-11-05T20:49:59.825Z,1.23
2018-11-05T20:52:28.507Z,1.80
2018-11-05T20:54:57.091Z,1.73
2018-11-05T20:57:25.695Z,1.50
2018-11-05T20:59:54.248Z,1.60
2018-11-05T21:02:22.824Z,1.60
2018-11-05T21:04:51.404Z,1.90
2018-11-05T21:07:19.938Z,1.77
2018-11-05T21:09:48.505Z,2.20
2018-11-05T21:12:17.036Z,2.77
2018-11-05T21:14:45.600Z,1.90
2018-11-05T21:17:14.221Z,1.50
2018-11-05T21:19:42.955Z,1.53
2018-11-05T21:22:13.015Z,1.70
2018-11-05T21:24:41.504Z,1.83
2018-11-05T21:27:10.166Z,1.63
2018-11-05T21:29:38.590Z,1.83
2018-11-05T21:32:07.208Z,1.90
2018-11-05T21:34:35.728Z,2.13
2018-11-05T21:37:04.263Z,1.40
2018-11-05T21:39:32.834Z,1.43
2018-11-05T21:42:01.352Z,2.00
2018-11-05T21:44:29.909Z,1.83
2018-11-05T21:46:58.520Z,2.13
2018-11-05T21:49:27.067Z,1.40
2018-11-05T21:51:55.767Z,1.30
2018-11-05T21:54:24.400Z,1.47
2018-11-05T21:56:52.880Z,1.30
2018-11-05T21:59:21.390Z,1.10
2018-11-05T22:01:49.916Z,1.20
2018-11-05T22:04:18.416Z,1.07
2018-11-05T22:06:46.971Z,1.40
2018-11-05T22:09:15.519Z,0.90
2018-11-05T22:11:44.050Z,1.17
2018-11-05T22:14:12.613Z,2.03
2018-11-05T22:16:41.176Z,2.20
2018-11-05T22:19:09.744Z,1.20
2018-11-05T22:21:38.300Z,1.60
2018-11-05T22:24:07.155Z,1.20
2018-11-05T22:26:35.746Z,1.00
2018-11-05T22:29:04.655Z,1.40
2018-11-05T22:31:33.187Z,1.47
2018-11-05T22:34:01.728Z,1.50
2018-11-05T22:36:30.235Z,1.63
2018-11-05T22:38:58.810Z,1.53
2018-11-05T22:41:27.366Z,1.33
2018-11-05T22:43:55.988Z,1.33
2018-11-05T22:46:24.503Z,0.80
2018-11-05T22:48:53.085Z,1.33
2018-11-05T22:51:21.627Z,1.20
2018-11-05T22:53:50.150Z,1.60
2018-11-05T22:56:18.679Z,1.60
2018-11-05T22:58:47.236Z,2.00
2018-11-05T23:01:20.975Z,2.20
2018-11-05T23:03:49.527Z,1.90
2018-11-05T23:06:18.054Z,1.77
2018-11-05T23:08:46.617Z,1.50
2018-11-05T23:11:15.145Z,1.27
2018-11-05T23:13:43.663Z,1.20
2018-11-05T23:16:12.207Z,1.07
2018-11-05T23:18:40.759Z,0.90
2018-11-05T23:21:09.315Z,0.70
2018-11-05T23:23:37.912Z,1.00
2018-11-05T23:26:06.538Z,0.77
2018-11-05T23:28:35.023Z,1.20
2018-11-05T23:31:03.574Z,0.90
2018-11-05T23:33:32.248Z,0.97
2018-11-05T23:36:00.691Z,0.80
2018-11-05T23:38:29.246Z,1.27
2018-11-05T23:40:57.896Z,1.00
2018-11-05T23:43:26.345Z,1.00
2018-11-05T23:45:54.897Z,0.90
2018-11-05T23:48:23.419Z,0.90
2018-11-05T23:50:51.948Z,0.90
2018-11-05T23:53:20.436Z,1.23
2018-11-05T23:55:48.967Z,1.23
2018-11-05T23:58:17.501Z,0.80
